createdAt,value
2023-04-06T00:00:34.512Z,100075.69
2023-04-06T00:03:01.162Z,100068.72
2023-04-06T00:05:28.919Z,100078.25
2023-04-06T00:07:56.956Z,100080.88
2023-04-06T00:10:23.448Z,100069.47
2023-04-06T00:12:49.938Z,100072.09
2023-04-06T00:15:16.637Z,100065.97
2023-04-06T00:17:43.155Z,100065.06
2023-04-06T00:20:10.639Z,100067.69
2023-04-06T00:22:37.065Z,100064.19
2023-04-06T00:25:03.695Z,100060.75
2023-04-06T00:27:30.521Z,100056.38
2023-04-06T00:29:57.125Z,100061.63
2023-04-06T00:32:23.633Z,100059.97
2023-04-06T00:34:50.101Z,100045.25
2023-04-06T00:37:16.575Z,100047.09
2023-04-06T00:39:43.761Z,100045.34
2023-04-06T00:42:16.630Z,100048.94
2023-04-06T00:44:43.094Z,100042.81
2023-04-06T00:47:10.242Z,100040.22
2023-04-06T00:49:36.836Z,100035.81
2023-04-06T00:52:03.341Z,100034.09
2023-04-06T00:54:30.408Z,100031.47
2023-04-06T00:56:57.268Z,100029.72
2023-04-06T00:59:23.792Z,100014.06
2023-04-06T01:01:50.535Z,100016.63
2023-04-06T01:04:17.138Z,100027.13
2023-04-06T01:06:43.609Z,100021.00
2023-04-06T01:09:10.447Z,100010.59
2023-04-06T01:11:37.142Z,100015.81
2023-04-06T01:14:04.589Z,100010.66
2023-04-06T01:16:31.388Z,100001.97
2023-04-06T01:18:58.061Z,99998.53
2023-04-06T01:21:24.643Z,100009.06
2023-04-06T01:23:51.263Z,100004.75
2023-04-06T01:26:17.857Z,99998.63
2023-04-06T01:28:45.570Z,100002.19
2023-04-06T01:31:12.148Z,100004.84
2023-04-06T01:33:38.679Z,99999.66
2023-04-06T01:36:05.581Z,99992.78
2023-04-06T01:38:32.159Z,100003.41
2023-04-06T01:40:58.697Z,99989.50
2023-04-06T01:43:25.463Z,99986.22
2023-04-06T01:45:52.012Z,99986.28
2023-04-06T01:48:19.853Z,99985.56
2023-04-06T01:50:46.420Z,99980.38
2023-04-06T01:53:12.961Z,99985.66
2023-04-06T01:55:39.461Z,99981.34
2023-04-06T01:58:05.999Z,99974.47
2023-04-06T02:00:32.558Z,99973.59
2023-04-06T02:02:59.082Z,99963.19
2023-04-06T02:05:26.573Z,99970.25
2023-04-06T02:07:53.320Z,99977.25
2023-04-06T02:10:19.929Z,99968.63
2023-04-06T02:12:46.420Z,99973.03
2023-04-06T02:15:14.390Z,99965.19
2023-04-06T02:17:42.111Z,99964.41
2023-04-06T02:20:09.426Z,99963.59
2023-04-06T02:22:36.589Z,99961.91
2023-04-06T02:25:03.635Z,99966.34
2023-04-06T02:27:30.118Z,99963.84
2023-04-06T02:29:56.565Z,99963.00
2023-04-06T02:32:23.060Z,99968.28
2023-04-06T02:34:49.586Z,99961.34
2023-04-06T02:37:16.066Z,99965.78
2023-04-06T02:39:42.663Z,99960.66
2023-04-06T02:42:09.778Z,99958.97
2023-04-06T02:44:36.368Z,99958.16
2023-04-06T02:47:02.836Z,99954.75
2023-04-06T02:49:29.386Z,99951.34
2023-04-06T02:51:55.825Z,99946.16
2023-04-06T02:54:22.314Z,99949.75
2023-04-06T02:56:48.781Z,99937.59
2023-04-06T02:59:15.546Z,99945.47
2023-04-06T03:01:42.049Z,99947.25
2023-04-06T03:04:08.621Z,99938.59
2023-04-06T03:06:35.310Z,99944.75
2023-04-06T03:09:01.841Z,99945.69
2023-04-06T03:11:28.246Z,99934.44
2023-04-06T03:13:54.803Z,99943.16
2023-04-06T03:16:21.654Z,99944.06
2023-04-06T03:18:48.484Z,99938.94
2023-04-06T03:21:16.358Z,99936.38
2023-04-06T03:23:43.562Z,99938.16
2023-04-06T03:26:10.699Z,99940.84
2023-04-06T03:28:37.135Z,99941.66
2023-04-06T03:31:03.712Z,99934.75
2023-04-06T03:33:30.349Z,99933.03
2023-04-06T03:35:56.861Z,99939.19
2023-04-06T03:38:23.399Z,99935.72
2023-04-06T03:40:49.960Z,99935.75
2023-04-06T03:43:16.644Z,99941.00
2023-04-06T03:45:43.066Z,99936.69
2023-04-06T03:48:09.775Z,99938.44
2023-04-06T03:50:36.619Z,99930.63
2023-04-06T03:53:04.166Z,99936.78
2023-04-06T03:55:31.143Z,99935.94
2023-04-06T03:57:57.696Z,99931.59
2023-04-06T04:00:24.368Z,99932.53
2023-04-06T04:02:50.971Z,99936.06
2023-04-06T04:05:17.571Z,99932.63
2023-04-06T04:07:44.128Z,99928.38
2023-04-06T04:10:10.840Z,99928.41
2023-04-06T04:12:37.447Z,99923.31
2023-04-06T04:15:04.344Z,99932.13
2023-04-06T04:17:30.915Z,99932.22
2023-04-06T04:19:57.538Z,99933.19
2023-04-06T04:22:24.119Z,99938.53
2023-04-06T04:24:50.653Z,99934.25
2023-04-06T04:27:17.142Z,99936.88
2023-04-06T04:29:44.739Z,99931.75
2023-04-06T04:32:11.235Z,99930.94
2023-04-06T04:34:41.120Z,99931.88
2023-04-06T04:37:07.799Z,99933.69
2023-04-06T04:39:34.435Z,99939.00
2023-04-06T04:42:00.940Z,99940.88
2023-04-06T04:44:27.493Z,99939.25
2023-04-06T04:46:54.041Z,99939.34
2023-04-06T04:49:20.628Z,99933.28
2023-04-06T04:51:47.086Z,99934.16
2023-04-06T04:54:13.612Z,99939.38
2023-04-06T04:56:40.241Z,99932.50
2023-04-06T04:59:07.010Z,99936.91
2023-04-06T05:01:43.748Z,99935.19
2023-04-06T05:04:18.128Z,99937.81
2023-04-06T05:06:44.623Z,99928.25
2023-04-06T05:09:11.182Z,99934.34
2023-04-06T05:11:37.693Z,99939.56
2023-04-06T05:14:04.402Z,99935.19
2023-04-06T05:16:31.102Z,99931.66
2023-04-06T05:18:57.826Z,99932.50
2023-04-06T05:21:26.094Z,99930.72
2023-04-06T05:23:54.924Z,99935.88
2023-04-06T05:26:21.459Z,99940.19
2023-04-06T05:28:48.047Z,99934.06
2023-04-06T05:31:15.718Z,99922.69
2023-04-06T05:33:42.445Z,99932.25
2023-04-06T05:36:09.235Z,99931.34
2023-04-06T05:38:36.295Z,99925.22
2023-04-06T05:41:02.884Z,99922.69
2023-04-06T05:43:29.510Z,99914.94
2023-04-06T05:45:56.198Z,99932.38
2023-04-06T05:48:22.710Z,99923.66
2023-04-06T05:50:51.609Z,99930.66
2023-04-06T05:53:18.515Z,99926.22
2023-04-06T05:55:45.078Z,99933.16
2023-04-06T05:58:11.742Z,99932.22
2023-04-06T06:00:38.392Z,99927.78
2023-04-06T06:03:06.641Z,99924.19
2023-04-06T06:05:33.414Z,99920.56
2023-04-06T06:08:00.098Z,99920.47
2023-04-06T06:10:26.697Z,99922.97
2023-04-06T06:12:53.277Z,99925.50
2023-04-06T06:15:19.980Z,99927.16
2023-04-06T06:17:46.555Z,99919.22
2023-04-06T06:20:13.525Z,99921.78
2023-04-06T06:22:41.181Z,99922.59
2023-04-06T06:25:07.941Z,99921.69
2023-04-06T06:27:34.552Z,99921.53
2023-04-06T06:30:01.221Z,99923.13
2023-04-06T06:32:27.884Z,99915.97
2023-04-06T06:34:54.451Z,99929.75
2023-04-06T06:37:21.101Z,99926.13
2023-04-06T06:39:47.917Z,99917.25
2023-04-06T06:42:14.949Z,99922.25
2023-04-06T06:44:41.653Z,99923.84
2023-04-06T06:47:08.271Z,99922.75
2023-04-06T06:49:34.984Z,99925.19
2023-04-06T06:52:01.565Z,99927.63
2023-04-06T06:54:28.093Z,99920.47
2023-04-06T06:56:55.800Z,99919.44
2023-04-06T06:59:22.517Z,99921.78
2023-04-06T07:01:51.046Z,99917.31
2023-04-06T07:04:17.674Z,99913.63
2023-04-06T07:06:44.601Z,99920.28
2023-04-06T07:09:11.210Z,99913.19
2023-04-06T07:11:37.837Z,99910.31
2023-04-06T07:14:04.472Z,99918.81
2023-04-06T07:16:31.279Z,99909.94
2023-04-06T07:18:57.935Z,99913.22
2023-04-06T07:21:24.503Z,99907.81
2023-04-06T07:23:51.925Z,99914.56
2023-04-06T07:26:18.787Z,99917.78
2023-04-06T07:28:45.404Z,99911.50
2023-04-06T07:31:12.298Z,99914.66
2023-04-06T07:33:38.961Z,99908.38
2023-04-06T07:36:06.216Z,99911.59
2023-04-06T07:38:32.862Z,99914.84
2023-04-06T07:40:59.464Z,99907.63
2023-04-06T07:43:26.228Z,99916.94
2023-04-06T07:45:53.103Z,99907.06
2023-04-06T07:48:19.764Z,99912.88
2023-04-06T07:50:46.385Z,99913.53
2023-04-06T07:53:13.006Z,99910.78
2023-04-06T07:55:39.768Z,99915.03
2023-04-06T07:58:06.456Z,99917.44
2023-04-06T08:00:33.126Z,99925.03
2023-04-06T08:02:59.765Z,99914.34
2023-04-06T08:05:26.339Z,99915.78
2023-04-06T08:07:52.873Z,99916.41
2023-04-06T08:10:19.529Z,99923.84
2023-04-06T08:12:46.117Z,99916.56
2023-04-06T08:15:12.816Z,99912.84
2023-04-06T08:17:39.350Z,99915.13
2023-04-06T08:20:06.387Z,99911.34
2023-04-06T08:22:32.976Z,99914.53
2023-04-06T08:24:59.617Z,99917.81
2023-04-06T08:27:26.351Z,99918.38
2023-04-06T08:29:52.882Z,99918.06
2023-04-06T08:32:19.346Z,99915.13
2023-04-06T08:34:46.399Z,99917.47
2023-04-06T08:37:12.927Z,99907.53
2023-04-06T08:39:39.935Z,99912.41
2023-04-06T08:42:16.801Z,99905.94
2023-04-06T08:44:43.921Z,99907.09
2023-04-06T08:47:10.660Z,99905.72
2023-04-06T08:49:38.800Z,99909.66
2023-04-06T08:52:08.678Z,99901.28
2023-04-06T08:54:35.864Z,99905.94
2023-04-06T08:57:03.822Z,99903.75
2023-04-06T08:59:31.051Z,99908.44
2023-04-06T09:01:58.042Z,99903.63
2023-04-06T09:04:24.763Z,99900.53
2023-04-06T09:06:51.316Z,99905.28
2023-04-06T09:09:17.862Z,99909.16
2023-04-06T09:11:45.145Z,99912.91
2023-04-06T09:14:11.681Z,99905.25
2023-04-06T09:16:42.985Z,99904.66
2023-04-06T09:19:10.724Z,99902.13
2023-04-06T09:21:38.139Z,99903.06
2023-04-06T09:24:05.434Z,99903.97
2023-04-06T09:26:34.818Z,99896.13
2023-04-06T09:29:02.573Z,99894.28
2023-04-06T09:31:31.587Z,99893.56
2023-04-06T09:33:58.652Z,99896.97
2023-04-06T09:36:36.695Z,99892.00
2023-04-06T09:39:04.780Z,99885.88
2023-04-06T09:41:32.367Z,99887.03
2023-04-06T09:44:12.359Z,99883.00
2023-04-06T09:46:57.770Z,99875.16
2023-04-06T09:49:31.157Z,99881.47
2023-04-06T09:52:07.605Z,99873.88
2023-04-06T09:54:36.527Z,99867.09
2023-04-06T09:57:21.254Z,99873.38
2023-04-06T10:00:13.838Z,99869.84
2023-04-06T10:03:23.194Z,99872.97
2023-04-06T10:06:05.654Z,99866.56
2023-04-06T10:08:36.061Z,99862.06
2023-04-06T10:11:03.144Z,99866.66
2023-04-06T10:13:29.810Z,99867.69
2023-04-06T10:15:56.440Z,99862.44
2023-04-06T10:18:23.799Z,99872.16
2023-04-06T10:20:54.399Z,99870.47
2023-04-06T10:23:32.084Z,99870.03
2023-04-06T10:26:01.117Z,99879.56
2023-04-06T10:28:36.725Z,99877.22
2023-04-06T10:31:06.425Z,99871.25
2023-04-06T10:33:33.308Z,99866.00
2023-04-06T10:36:11.171Z,99872.56
2023-04-06T10:38:41.381Z,99862.78
2023-04-06T10:41:15.520Z,99865.63
2023-04-06T10:43:42.778Z,99864.00
2023-04-06T10:46:10.510Z,99863.31
2023-04-06T10:48:42.278Z,99862.88
2023-04-06T10:51:12.025Z,99858.81
2023-04-06T10:53:40.684Z,99852.69
2023-04-06T10:56:12.799Z,99857.19
2023-04-06T10:58:39.899Z,99853.47
2023-04-06T11:01:06.976Z,99854.47
2023-04-06T11:03:44.282Z,99852.88
2023-04-06T11:06:11.054Z,99854.97
2023-04-06T11:08:38.810Z,99849.78
2023-04-06T11:11:17.164Z,99847.50
2023-04-06T11:13:45.326Z,99849.19
2023-04-06T11:16:22.313Z,99847.66
2023-04-06T11:19:03.656Z,99841.50
2023-04-06T11:21:40.196Z,99842.19
2023-04-06T11:25:02.826Z,99842.66
2023-04-06T11:27:32.584Z,99837.63
2023-04-06T11:30:01.115Z,99829.78
2023-04-06T11:32:27.713Z,99836.06
2023-04-06T11:34:54.300Z,99835.59
2023-04-06T11:37:21.010Z,99833.38
2023-04-06T11:39:52.887Z,99838.22
2023-04-06T11:42:27.413Z,99827.50
2023-04-06T11:44:59.141Z,99830.31
2023-04-06T11:47:34.235Z,99830.31
2023-04-06T11:50:11.916Z,99819.41
2023-04-06T11:52:40.303Z,99817.75
2023-04-06T11:55:18.256Z,99813.28
2023-04-06T11:57:45.932Z,99824.66
2023-04-06T12:00:13.382Z,99815.06
2023-04-06T12:02:50.230Z,99818.03
2023-04-06T12:05:16.888Z,99806.44
2023-04-06T12:07:44.615Z,99818.78
2023-04-06T12:10:11.225Z,99818.53
2023-04-06T12:12:37.741Z,99805.34
2023-04-06T12:15:05.949Z,99811.28
2023-04-06T12:17:32.525Z,99816.06
2023-04-06T12:20:05.179Z,99815.13
2023-04-06T12:22:37.321Z,99821.31
2023-04-06T12:25:04.296Z,99812.13
2023-04-06T12:27:30.850Z,99808.88
2023-04-06T12:29:57.338Z,99806.09
2023-04-06T12:32:23.994Z,99798.38
2023-04-06T12:34:53.248Z,99794.34
2023-04-06T12:37:19.798Z,99798.72
2023-04-06T12:39:46.394Z,99794.19
2023-04-06T12:42:13.674Z,99790.00
2023-04-06T12:44:40.534Z,99793.19
2023-04-06T12:47:08.394Z,99793.03
2023-04-06T12:49:35.088Z,99796.97
2023-04-06T12:52:03.228Z,99795.09
2023-04-06T12:54:29.811Z,99790.72
2023-04-06T12:56:57.533Z,99788.31
2023-04-06T12:59:26.033Z,99789.66
2023-04-06T13:01:53.557Z,99780.81
2023-04-06T13:04:20.072Z,99789.53
2023-04-06T13:06:46.484Z,99789.31
2023-04-06T13:09:12.953Z,99788.25
2023-04-06T13:11:39.821Z,99784.78
2023-04-06T13:14:06.305Z,99780.28
2023-04-06T13:16:36.511Z,99780.50
2023-04-06T13:19:03.528Z,99774.66
2023-04-06T13:21:31.328Z,99776.06
2023-04-06T13:23:57.864Z,99778.06
2023-04-06T13:26:24.357Z,99762.19
2023-04-06T13:28:51.152Z,99769.38
2023-04-06T13:31:17.693Z,99770.31
2023-04-06T13:33:44.321Z,99769.78
2023-04-06T13:36:10.873Z,99764.19
2023-04-06T13:38:39.774Z,99759.28
2023-04-06T13:41:06.971Z,99765.75
2023-04-06T13:43:33.454Z,99760.16
2023-04-06T13:46:01.998Z,99767.75
2023-04-06T13:48:28.475Z,99758.50
2023-04-06T13:50:54.918Z,99755.00
2023-04-06T13:53:21.405Z,99760.03
2023-04-06T13:55:55.542Z,99757.38
2023-04-06T13:58:22.091Z,99753.16
2023-04-06T14:00:48.804Z,99757.88
2023-04-06T14:03:15.657Z,99753.53
2023-04-06T14:05:42.142Z,99753.63
2023-04-06T14:08:08.522Z,99754.56
2023-04-06T14:10:39.696Z,99742.75
2023-04-06T14:13:06.323Z,99753.00
2023-04-06T14:15:32.935Z,99749.31
2023-04-06T14:17:59.284Z,99744.00
2023-04-06T14:20:25.658Z,99744.97
2023-04-06T14:22:53.635Z,99746.97
2023-04-06T14:25:19.988Z,99748.53
2023-04-06T14:27:46.428Z,99744.22
2023-04-06T14:30:13.256Z,99742.59
2023-04-06T14:32:39.970Z,99741.75
2023-04-06T14:35:07.816Z,99744.34
2023-04-06T14:37:34.613Z,99742.94
2023-04-06T14:40:00.948Z,99742.09
2023-04-06T14:42:27.377Z,99737.44
2023-04-06T14:44:54.632Z,99731.00
2023-04-06T14:47:22.410Z,99728.88
2023-04-06T14:49:51.868Z,99721.72
2023-04-06T14:52:18.410Z,99723.38
2023-04-06T14:54:44.778Z,99722.66
2023-04-06T14:57:11.193Z,99719.75
2023-04-06T14:59:39.980Z,99724.00
2023-04-06T15:02:07.438Z,99717.94
2023-04-06T15:04:36.335Z,99726.53
2023-04-06T15:07:02.746Z,99714.78
2023-04-06T15:09:29.087Z,99713.78
2023-04-06T15:11:56.444Z,99711.94
2023-04-06T15:14:22.782Z,99717.13
2023-04-06T15:16:49.193Z,99715.09
2023-04-06T15:19:15.590Z,99708.59
2023-04-06T15:21:42.098Z,99712.50
2023-04-06T15:24:09.520Z,99709.47
2023-04-06T15:26:37.816Z,99712.22
2023-04-06T15:29:04.566Z,99710.75
2023-04-06T15:31:37.463Z,99705.53
2023-04-06T15:34:04.580Z,99715.06
2023-04-06T15:36:31.235Z,99722.03
2023-04-06T15:38:58.309Z,99711.06
2023-04-06T15:41:26.735Z,99713.28
2023-04-06T15:43:54.432Z,99710.88
2023-04-06T15:46:21.691Z,99707.66
2023-04-06T15:48:48.359Z,99706.78
2023-04-06T15:51:14.886Z,99705.81
2023-04-06T15:53:41.184Z,99707.13
2023-04-06T15:56:10.961Z,99704.91
2023-04-06T15:58:37.655Z,99708.75
2023-04-06T16:01:18.134Z,99704.97
2023-04-06T16:03:45.358Z,99701.66
2023-04-06T16:06:12.678Z,99706.00
2023-04-06T16:08:40.234Z,99702.50
2023-04-06T16:11:07.017Z,99706.88
2023-04-06T16:13:33.750Z,99708.81
2023-04-06T16:16:00.652Z,99702.19
2023-04-06T16:18:27.463Z,99708.28
2023-04-06T16:20:53.981Z,99715.47
2023-04-06T16:23:20.619Z,99710.91
2023-04-06T16:25:47.107Z,99709.16
2023-04-06T16:28:13.538Z,99710.91
2023-04-06T16:30:41.472Z,99709.13
2023-04-06T16:33:10.041Z,99716.16
2023-04-06T16:35:36.735Z,99715.22
2023-04-06T16:38:03.265Z,99722.25
2023-04-06T16:40:29.736Z,99714.38
2023-04-06T16:42:56.210Z,99716.22
2023-04-06T16:45:22.736Z,99716.34
2023-04-06T16:47:50.441Z,99719.13
2023-04-06T16:50:17.452Z,99722.75
2023-04-06T16:52:44.187Z,99715.63
2023-04-06T16:55:10.991Z,99723.44
2023-04-06T16:57:37.545Z,99713.53
2023-04-06T17:00:05.720Z,99718.59
2023-04-06T17:02:36.133Z,99713.75
2023-04-06T17:05:04.204Z,99721.44
2023-04-06T17:07:35.511Z,99719.13
2023-04-06T17:10:03.050Z,99719.50
2023-04-06T17:12:29.932Z,99718.72
2023-04-06T17:14:56.542Z,99721.75
2023-04-06T17:17:23.353Z,99716.78
2023-04-06T17:19:50.126Z,99727.63
2023-04-06T17:22:20.558Z,99721.78
2023-04-06T17:24:50.686Z,99725.63
2023-04-06T17:27:17.262Z,99723.34
2023-04-06T17:29:43.756Z,99727.06
2023-04-06T17:32:12.007Z,99737.75
2023-04-06T17:34:38.573Z,99737.16
2023-04-06T17:37:05.688Z,99734.84
2023-04-06T17:39:32.365Z,99739.63
2023-04-06T17:42:00.081Z,99740.16
2023-04-06T17:44:26.792Z,99733.66
2023-04-06T17:46:53.257Z,99743.94
2023-04-06T17:49:19.798Z,99733.06
2023-04-06T17:51:46.305Z,99739.72
2023-04-06T17:54:12.950Z,99752.66
2023-04-06T17:56:39.697Z,99748.78
2023-04-06T17:59:09.113Z,99748.38
2023-04-06T18:01:35.806Z,99758.53
2023-04-06T18:04:02.560Z,99758.13
2023-04-06T18:06:29.095Z,99760.34
2023-04-06T18:08:55.736Z,99769.63
2023-04-06T18:11:22.268Z,99763.78
2023-04-06T18:13:49.056Z,99763.47
2023-04-06T18:16:17.303Z,99767.56
2023-04-06T18:18:43.988Z,99770.84
2023-04-06T18:21:10.488Z,99774.97
2023-04-06T18:23:37.822Z,99780.03
2023-04-06T18:26:05.756Z,99784.19
2023-04-06T18:28:33.116Z,99779.53
2023-04-06T18:30:59.904Z,99780.13
2023-04-06T18:33:29.908Z,99788.56
2023-04-06T18:35:59.824Z,99786.53
2023-04-06T18:38:26.311Z,99787.22
2023-04-06T18:40:52.866Z,99785.03
2023-04-06T18:43:19.317Z,99786.59
2023-04-06T18:45:45.885Z,99793.41
2023-04-06T18:48:13.664Z,99793.00
2023-04-06T18:50:40.515Z,99786.41
2023-04-06T18:53:07.112Z,99800.91
2023-04-06T18:55:33.976Z,99796.00
2023-04-06T18:58:00.643Z,99799.78
2023-04-06T19:00:27.214Z,99797.53
2023-04-06T19:02:53.804Z,99801.28
2023-04-06T19:05:22.159Z,99793.72
2023-04-06T19:07:52.256Z,99796.56
2023-04-06T19:10:19.591Z,99795.06
2023-04-06T19:12:46.787Z,99803.25
2023-04-06T19:15:13.664Z,99800.88
2023-04-06T19:17:40.619Z,99795.88
2023-04-06T19:20:08.392Z,99793.44
2023-04-06T19:22:36.851Z,99800.69
2023-04-06T19:25:07.832Z,99800.84
2023-04-06T19:27:34.913Z,99799.16
2023-04-06T19:30:01.551Z,99801.97
2023-04-06T19:32:30.132Z,99801.31
2023-04-06T19:34:56.921Z,99795.34
2023-04-06T19:37:23.422Z,99789.44
2023-04-06T19:39:49.880Z,99797.31
2023-04-06T19:42:16.569Z,99790.47
2023-04-06T19:44:43.095Z,99793.19
2023-04-06T19:47:11.782Z,99805.59
2023-04-06T19:49:40.682Z,99804.09
2023-04-06T19:52:07.781Z,99807.84
2023-04-06T19:54:35.782Z,99805.53
2023-04-06T19:57:03.206Z,99798.84
2023-04-06T19:59:29.810Z,99794.78
2023-04-06T20:01:56.430Z,99800.38
2023-04-06T20:04:23.840Z,99796.34
2023-04-06T20:06:51.113Z,99796.59
2023-04-06T20:09:17.536Z,99797.63
2023-04-06T20:11:44.101Z,99798.72
2023-04-06T20:14:10.916Z,99801.53
2023-04-06T20:16:50.575Z,99798.22
2023-04-06T20:19:17.229Z,99798.31
2023-04-06T20:21:43.942Z,99799.38
2023-04-06T20:24:11.679Z,99788.94
2023-04-06T20:26:38.422Z,99786.38
2023-04-06T20:29:04.942Z,99794.28
2023-04-06T20:31:31.514Z,99790.72
2023-04-06T20:33:58.146Z,99793.25
2023-04-06T20:36:24.620Z,99789.59
2023-04-06T20:38:51.070Z,99787.78
2023-04-06T20:41:17.554Z,99789.47
2023-04-06T20:43:44.117Z,99781.56
2023-04-06T20:46:16.316Z,99780.75
2023-04-06T20:48:42.853Z,99774.44
2023-04-06T20:51:18.128Z,99770.22
2023-04-06T20:53:44.908Z,99758.66
2023-04-06T20:56:11.699Z,99760.44
2023-04-06T20:58:38.169Z,99769.19
2023-04-06T21:01:04.711Z,99771.75
2023-04-06T21:03:31.388Z,99767.38
2023-04-06T21:05:59.054Z,99762.13
2023-04-06T21:08:25.632Z,99755.94
2023-04-06T21:10:52.154Z,99753.19
2023-04-06T21:13:18.674Z,99748.72
2023-04-06T21:15:45.291Z,99750.31
2023-04-06T21:18:12.342Z,99751.06
2023-04-06T21:20:39.908Z,99745.72
2023-04-06T21:23:06.514Z,99743.00
2023-04-06T21:25:32.982Z,99751.69
2023-04-06T21:27:59.429Z,99749.03
2023-04-06T21:30:25.996Z,99746.31
2023-04-06T21:32:52.644Z,99748.09
2023-04-06T21:35:19.321Z,99745.47
2023-04-06T21:37:45.950Z,99741.97
2023-04-06T21:40:12.997Z,99737.56
2023-04-06T21:42:39.578Z,99734.00
2023-04-06T21:45:06.485Z,99734.84
2023-04-06T21:47:35.015Z,99738.44
2023-04-06T21:50:01.515Z,99726.88
2023-04-06T21:52:27.987Z,99730.34
2023-04-06T21:54:54.527Z,99735.50
2023-04-06T21:57:21.016Z,99729.38
2023-04-06T21:59:47.893Z,99731.09
2023-04-06T22:02:14.367Z,99737.19
2023-04-06T22:04:41.070Z,99730.16
2023-04-06T22:07:07.684Z,99727.53
2023-04-06T22:09:34.176Z,99718.69
2023-04-06T22:12:00.793Z,99722.19
2023-04-06T22:14:27.252Z,99711.66
2023-04-06T22:16:53.717Z,99709.84
2023-04-06T22:19:20.442Z,99718.69
2023-04-06T22:21:46.956Z,99706.47
2023-04-06T22:24:13.703Z,99704.56
2023-04-06T22:26:40.388Z,99704.56
2023-04-06T22:29:06.869Z,99707.13
2023-04-06T22:31:33.378Z,99702.81
2023-04-06T22:33:59.861Z,99704.56
2023-04-06T22:36:26.628Z,99702.06
2023-04-06T22:38:53.116Z,99703.84
2023-04-06T22:41:19.582Z,99708.25
2023-04-06T22:43:46.028Z,99713.59
2023-04-06T22:46:12.512Z,99707.41
2023-04-06T22:48:38.963Z,99706.56
2023-04-06T22:51:05.528Z,99701.28
2023-04-06T22:53:31.954Z,99702.22
2023-04-06T22:55:58.431Z,99702.22
2023-04-06T22:58:24.856Z,99701.38
2023-04-06T23:00:51.356Z,99700.44
2023-04-06T23:03:17.889Z,99691.78
2023-04-06T23:05:45.106Z,99697.91
2023-04-06T23:08:11.587Z,99697.91
2023-04-06T23:10:41.769Z,99698.75
2023-04-06T23:13:09.381Z,99692.66
2023-04-06T23:15:36.216Z,99690.84
2023-04-06T23:18:03.113Z,99690.75
2023-04-06T23:20:29.577Z,99691.72
2023-04-06T23:22:56.290Z,99692.53
2023-04-06T23:25:22.781Z,99692.53
2023-04-06T23:27:49.224Z,99691.63
2023-04-06T23:30:15.712Z,99694.25
2023-04-06T23:32:42.254Z,99690.75
2023-04-06T23:35:09.173Z,99691.63
2023-04-06T23:37:35.618Z,99688.13
2023-04-06T23:40:02.166Z,99687.25
2023-04-06T23:42:29.315Z,99687.25
2023-04-06T23:44:58.290Z,99687.25
2023-04-06T23:47:24.774Z,99684.63
2023-04-06T23:49:51.300Z,99685.56
2023-04-06T23:52:17.754Z,99685.56
2023-04-06T23:54:44.273Z,99678.63
2023-04-06T23:57:10.877Z,99686.53
2023-04-06T23:59:37.317Z,99678.63
